Time;durP1;ratioP1;P1;durP2;ratioP2;P2;SDS_P1;SDS_P2;PMS_P1;PMS_P2;Temp;Humidity;BMP_temperature;BMP_pressure;BME280_temperature;BME280_humidity;BME280_pressure;Samples;Min_cycle;Max_cycle;Signal;HPM_P1;HPM_P2
2021/12/04 00:01:11;;;;;;;5.05;3.75;;;;;;;1.07;71.69;98279.94;4828302;29;20065;-91
2021/12/04 00:03:41;;;;;;;5.03;3.45;;;;;;;1.20;71.68;98299.88;4825549;29;20473;-90
2021/12/04 00:06:15;;;;;;;6.15;4.40;;;;;;;1.19;71.46;98305.88;4827274;29;20054;-90
2021/12/04 00:08:47;;;;;;;6.72;4.35;;;;;;;1.18;71.47;98291.25;4830223;29;20070;-90
2021/12/04 00:11:15;;;;;;;5.85;4.00;;;;;;;1.17;71.82;98292.13;4831089;29;20141;-86
2021/12/04 00:13:44;;;;;;;7.50;4.25;;;;;;;1.14;71.55;98282.66;4819296;29;20062;-88
2021/12/04 00:16:12;;;;;;;7.45;4.47;;;;;;;1.15;71.62;98291.22;4824143;29;20099;-89
2021/12/04 00:18:40;;;;;;;7.10;3.75;;;;;;;0.99;71.98;98278.13;4836148;29;20038;-87
2021/12/04 00:21:07;;;;;;;7.28;4.43;;;;;;;1.12;71.42;98307.47;4848411;29;20097;-86
2021/12/04 00:23:35;;;;;;;7.03;4.28;;;;;;;1.16;71.71;98298.09;4841218;29;20087;-88
2021/12/04 00:26:04;;;;;;;8.48;4.13;;;;;;;1.17;72.03;98300.69;4814512;29;20050;-88
2021/12/04 00:28:32;;;;;;;7.28;4.28;;;;;;;1.02;71.56;98265.31;4843131;29;20060;-88
2021/12/04 00:31:05;;;;;;;6.25;4.32;;;;;;;1.22;71.98;98300.75;4840783;29;20520;-88
2021/12/04 00:33:34;;;;;;;7.80;4.30;;;;;;;1.09;71.33;98293.69;4834027;29;20058;-90
2021/12/04 00:36:08;;;;;;;5.85;4.40;;;;;;;0.75;72.41;98255.47;4817810;29;20601;-90
2021/12/04 00:49:40;;;;;;;5.47;3.63;;;;;;;0.29;73.12;98312.84;4828472;29;20050;-87
2021/12/04 00:52:07;;;;;;;4.85;3.47;;;;;;;0.11;73.31;98300.53;4822442;29;20055;-86
2021/12/04 00:54:34;;;;;;;5.05;3.60;;;;;;;-0.07;73.74;98293.28;4811110;29;20106;-85
2021/12/04 00:57:02;;;;;;;5.28;3.67;;;;;;;-0.03;73.83;98311.34;4819713;29;20128;-87
2021/12/04 00:59:29;;;;;;;5.03;3.60;;;;;;;-0.05;73.34;98309.59;4826643;29;20059;-87
2021/12/04 01:01:57;;;;;;;5.65;3.50;;;;;;;-0.21;73.17;98293.88;4826459;29;20107;-89
2021/12/04 01:04:24;;;;;;;6.63;3.60;;;;;;;-0.35;73.40;98282.44;4829941;29;20039;-88
2021/12/04 01:06:52;;;;;;;4.95;3.35;;;;;;;-0.34;72.77;98284.19;4818487;29;20055;-90
2021/12/04 01:09:22;;;;;;;5.28;3.30;;;;;;;-0.30;72.53;98315.91;4810510;29;20058;-90
2021/12/04 01:11:51;;;;;;;4.30;2.67;;;;;;;-0.34;72.47;98309.84;4812134;29;20516;-89
2021/12/04 01:14:22;;;;;;;4.80;3.07;;;;;;;-0.36;72.43;98308.97;4799603;29;20517;-90
2021/12/04 01:16:49;;;;;;;;;;;;;;;-0.55;73.62;98317.94;4809562;29;20059;-89
2021/12/04 01:19:19;;;;;;;5.82;3.38;;;;;;;-0.56;73.04;98315.31;4809545;29;19933;-89
2021/12/04 01:21:49;;;;;;;5.93;3.28;;;;;;;-0.57;72.47;98316.19;4810967;29;20063;-89
2021/12/04 01:24:16;;;;;;;;;;;;;;;-0.77;72.97;98311.44;4811437;29;20416;-88
2021/12/04 01:26:43;;;;;;;6.47;3.80;;;;;;;-0.77;73.17;98311.44;4813692;29;20463;-89
2021/12/04 01:29:11;;;;;;;6.57;3.72;;;;;;;-0.84;72.73;98301.88;4845077;29;20038;-85
2021/12/04 01:31:39;;;;;;;5.57;4.35;;;;;;;-0.80;73.24;98326.75;4849398;29;20051;-86
2021/12/04 01:34:06;;;;;;;7.40;4.00;;;;;;;-0.86;73.58;98314.66;4850484;29;20082;-87
2021/12/04 01:36:34;;;;;;;6.45;3.58;;;;;;;-0.93;72.92;98299.94;4850450;29;20064;-85
2021/12/04 01:39:04;;;;;;;8.50;4.32;;;;;;;-0.81;73.46;98324.16;4847513;29;20068;-84
2021/12/04 01:41:35;;;;;;;5.80;3.70;;;;;;;-0.80;73.26;98329.31;4840726;29;20097;-87
2021/12/04 01:44:05;;;;;;;4.78;3.30;;;;;;;-0.64;72.65;98328.84;4829366;29;20065;-88
2021/12/04 01:46:33;;;;;;;4.13;3.13;;;;;;;-0.66;72.52;98335.63;4830184;29;20066;-87
2021/12/04 01:49:01;;;;;;;5.20;3.38;;;;;;;-0.75;73.02;98330.31;4828741;29;20093;-87
2021/12/04 01:51:28;;;;;;;6.22;3.40;;;;;;;-0.85;72.73;98326.63;4828781;29;20056;-86
2021/12/04 01:53:55;;;;;;;5.88;3.55;;;;;;;-0.96;73.09;98328.09;4812447;29;20054;-87
2021/12/04 01:56:24;;;;;;;6.43;3.25;;;;;;;-1.22;72.71;98280.47;4815800;29;20081;-88
2021/12/04 01:58:53;;;;;;;5.28;3.38;;;;;;;-1.01;73.22;98324.56;4808939;29;20063;-85
2021/12/04 02:01:20;;;;;;;5.28;3.45;;;;;;;-1.16;72.97;98332.72;4793816;29;20062;-87
2021/12/04 02:03:48;;;;;;;6.95;3.60;;;;;;;-1.13;73.70;98337.91;4808918;29;20070;-87
2021/12/04 02:06:15;;;;;;;6.53;3.67;;;;;;;-1.14;73.41;98350.69;4809599;29;20059;-88
2021/12/04 02:08:45;;;;;;;7.95;3.63;;;;;;;-1.16;73.65;98331.84;4794932;29;20443;-88
2021/12/04 02:11:13;;;;;;;;;;;;;;;-1.38;74.25;98333.84;4810292;29;20439;-89
2021/12/04 02:13:40;;;;;;;6.47;3.00;;;;;;;-1.37;74.11;98334.72;4811959;29;19928;-87
2021/12/04 02:16:19;;;;;;;5.65;3.60;;;;;;;-1.49;74.21;98318.19;4828534;29;20054;-88
2021/12/04 02:18:47;;;;;;;5.65;3.45;;;;;;;-1.40;74.33;98340.63;4816911;29;20040;-88
2021/12/04 02:21:14;;;;;;;6.20;3.25;;;;;;;-1.52;74.21;98350.56;4830306;29;20065;-86
2021/12/04 02:23:42;;;;;;;7.25;3.75;;;;;;;-1.47;74.30;98338.72;4821450;29;20062;-88
2021/12/04 02:26:09;;;;;;;5.15;3.25;;;;;;;-1.47;74.46;98351.53;4816366;29;20122;-87
2021/12/04 02:28:37;;;;;;;4.72;3.20;;;;;;;-1.48;74.49;98337.88;4815366;29;20055;-87
2021/12/04 02:31:04;;;;;;;4.88;2.83;;;;;;;-1.53;74.21;98333.44;4810929;29;20073;-88
2021/12/04 02:33:32;;;;;;;7.20;3.40;;;;;;;-1.60;74.48;98347.78;4812430;29;20051;-88
2021/12/04 02:36:02;;;;;;;6.47;3.55;;;;;;;-1.65;74.35;98326.31;4812120;29;20079;-87
2021/12/04 02:38:30;;;;;;;4.63;3.22;;;;;;;-1.57;74.63;98355.56;4812966;29;20063;-88
2021/12/04 02:41:02;;;;;;;5.93;3.30;;;;;;;-1.72;74.61;98314.16;4821038;29;20507;-89
2021/12/04 02:43:34;;;;;;;5.40;3.53;;;;;;;-1.59;74.45;98353.75;4827054;29;20149;-88
2021/12/04 02:46:05;;;;;;;4.25;2.97;;;;;;;-1.61;74.71;98346.06;4826840;29;20066;-89
2021/12/04 02:48:32;;;;;;;8.60;3.55;;;;;;;-1.78;74.37;98329.38;4826369;29;20118;-90
2021/12/04 02:51:00;;;;;;;10.00;3.60;;;;;;;-1.78;74.66;98331.94;4827298;29;20165;-88
2021/12/04 02:53:27;;;;;;;6.13;3.28;;;;;;;-1.81;74.30;98331.81;4827065;29;20062;-89
2021/12/04 02:55:55;;;;;;;4.20;3.15;;;;;;;-1.83;74.91;98341.16;4826743;29;20054;-88
2021/12/04 02:58:22;;;;;;;5.43;3.25;;;;;;;-1.74;74.80;98361.88;4826258;29;20054;-87
2021/12/04 03:00:51;;;;;;;4.50;3.22;;;;;;;-1.76;75.02;98356.72;4826330;29;20089;-88
2021/12/04 03:03:19;;;;;;;5.57;3.80;;;;;;;-1.77;74.93;98367.78;4826260;29;20137;-88
2021/12/04 03:05:50;;;;;;;6.00;3.28;;;;;;;-1.93;74.86;98332.34;4797303;29;20062;-87
2021/12/04 03:08:21;;;;;;;4.93;3.03;;;;;;;-1.73;74.82;98366.19;4813779;29;20474;-88
2021/12/04 03:10:51;;;;;;;6.82;3.63;;;;;;;-1.80;75.00;98367.72;4799445;29;20064;-87
2021/12/04 03:13:20;;;;;;;5.95;3.50;;;;;;;-1.73;74.82;98373.88;4828912;29;20050;-88
2021/12/04 03:15:56;;;;;;;5.00;3.38;;;;;;;-1.96;74.67;98347.59;4796692;29;20059;-88
2021/12/04 03:18:24;;;;;;;6.25;3.65;;;;;;;-1.86;75.00;98376.06;4792798;29;20095;-87
2021/12/04 03:20:55;;;;;;;7.70;3.53;;;;;;;-1.89;75.03;98373.44;4788907;30;20066;-87
2021/12/04 03:23:39;;;;;;;4.47;3.13;;;;;;;-1.95;74.93;98372.41;4810372;29;20098;-86
2021/12/04 03:26:09;;;;;;;5.65;3.53;;;;;;;-2.02;75.74;98366.22;4826214;29;20127;-88
2021/12/04 03:28:36;;;;;;;8.80;4.15;;;;;;;-1.95;75.29;98380.06;4827028;29;20504;-88
2021/12/04 03:31:13;;;;;;;7.28;4.28;;;;;;;-1.96;75.71;98368.94;4826686;29;20050;-90
2021/12/04 03:41:57;;;;;;;6.78;4.07;;;;;;;-2.12;75.27;98383.00;4837296;29;20078;-88
2021/12/04 03:44:25;;;;;;;7.43;3.92;;;;;;;-2.13;75.29;98378.72;4814967;29;20098;-86
2021/12/04 03:46:52;;;;;;;6.28;3.50;;;;;;;-2.08;74.98;98405.28;4792107;29;20078;-87
2021/12/04 03:49:20;;;;;;;7.28;3.78;;;;;;;-2.07;75.30;98395.91;4790535;29;20059;-87
2021/12/04 03:51:47;;;;;;;8.38;3.67;;;;;;;-2.18;75.54;98384.50;4789705;29;20117;-86
2021/12/04 03:54:14;;;;;;;5.05;3.10;;;;;;;-2.10;75.57;98391.59;4790606;30;20059;-87
2021/12/04 03:56:42;;;;;;;6.07;2.85;;;;;;;-2.13;74.89;98396.63;4792373;29;20567;-88
2021/12/04 03:59:10;;;;;;;5.57;3.25;;;;;;;-2.27;75.61;98401.31;4790157;29;20066;-90
2021/12/04 04:01:37;;;;;;;5.93;3.13;;;;;;;-2.11;75.25;98410.34;4789912;29;20073;-88
2021/12/04 04:04:05;;;;;;;5.53;3.70;;;;;;;-2.13;75.88;98422.22;4790817;29;20086;-86
2021/12/04 04:06:33;;;;;;;6.47;3.20;;;;;;;-2.16;75.55;98414.41;4790606;29;20475;-88
2021/12/04 04:09:03;;;;;;;5.22;3.38;;;;;;;-2.16;75.78;98408.44;4790949;29;20063;-88
2021/12/04 04:11:35;;;;;;;5.78;3.17;;;;;;;-2.14;75.80;98407.66;4789052;30;20055;-88
2021/12/04 04:14:04;;;;;;;7.95;3.70;;;;;;;-2.12;75.90;98410.28;4790715;29;20146;-86
2021/12/04 04:16:37;;;;;;;8.52;3.08;;;;;;;-2.00;75.59;98435.34;4789391;30;20488;-87
2021/12/04 04:19:06;;;;;;;7.28;3.65;;;;;;;-1.98;75.92;98424.38;4793477;29;20066;-87
2021/12/04 04:21:39;;;;;;;4.40;3.10;;;;;;;-1.95;75.40;98421.03;4797764;29;20059;-87
2021/12/04 04:24:12;;;;;;;4.75;2.95;;;;;;;-2.01;75.41;98403.78;4817132;29;20054;-87
2021/12/04 04:26:41;;;;;;;6.65;3.50;;;;;;;-1.90;75.29;98419.47;4825737;29;20482;-85
2021/12/04 04:29:08;;;;;;;5.30;3.50;;;;;;;-1.78;75.24;98440.31;4824420;29;20073;-86
2021/12/04 04:31:48;;;;;;;6.45;3.20;;;;;;;-1.70;74.41;98408.13;4825134;29;20095;-85
2021/12/04 04:34:27;;;;;;;3.55;3.13;;;;;;;-1.55;74.28;98412.81;4824454;29;20078;-86
2021/12/04 05:12:53;;;;;;;4.18;3.00;;;;;;;-1.28;72.26;98399.00;4807445;29;20107;-87
2021/12/04 05:21:03;;;;;;;3.63;2.92;;;;;;;-1.17;72.05;98427.50;4810356;29;20097;-89
2021/12/04 05:23:33;;;;;;;4.95;3.08;;;;;;;-1.12;72.20;98437.06;4809108;29;20054;-88
2021/12/04 05:26:03;;;;;;;5.07;3.17;;;;;;;-1.02;71.51;98439.84;4820580;29;20085;-87
2021/12/04 05:28:30;;;;;;;5.32;3.05;;;;;;;-1.01;71.82;98441.56;4825392;29;20099;-86
2021/12/04 05:30:58;;;;;;;5.70;3.55;;;;;;;-1.07;71.46;98430.34;4824779;29;20054;-86
2021/12/04 05:33:26;;;;;;;6.00;3.30;;;;;;;-1.06;71.51;98442.31;4826198;29;20089;-87
2021/12/04 05:35:53;;;;;;;5.80;2.90;;;;;;;-1.22;71.67;98416.25;4824657;29;20099;-91
2021/12/04 05:38:21;;;;;;;4.93;2.90;;;;;;;-0.97;71.34;98444.25;4823371;29;20081;-88
2021/12/04 05:40:49;;;;;;;6.38;3.08;;;;;;;-1.00;72.05;98433.06;4824217;29;20050;-90
2021/12/04 05:43:21;;;;;;;5.70;2.95;;;;;;;-0.81;71.61;98460.06;4824505;29;20050;-88
2021/12/04 05:45:56;;;;;;;5.07;2.72;;;;;;;-0.87;71.17;98453.94;4811655;29;20060;-88
2021/12/04 05:53:58;;;;;;;6.53;3.55;;;;;;;-0.73;71.67;98458.53;4813733;29;20087;-89
2021/12/04 05:56:29;;;;;;;4.38;2.90;;;;;;;-0.76;71.63;98456.78;4827829;29;20061;-88
2021/12/04 05:58:56;;;;;;;;;;;;;;;-0.86;71.33;98460.81;4832873;29;20114;-88
2021/12/04 06:01:25;;;;;;;4.53;3.20;;;;;;;-0.90;71.65;98442.75;4829622;29;19932;-90
2021/12/04 06:03:53;;;;;;;5.75;3.15;;;;;;;-0.87;71.07;98448.81;4823631;29;20446;-89
2021/12/04 06:06:20;;;;;;;5.85;3.40;;;;;;;-0.77;71.51;98470.44;4824811;29;20062;-87
2021/12/04 06:08:48;;;;;;;6.63;3.15;;;;;;;-0.70;71.28;98480.00;4828051;29;20141;-86
2021/12/04 06:11:16;;;;;;;5.05;3.65;;;;;;;-0.69;71.21;98470.63;4827353;29;20062;-84
2021/12/04 06:13:44;;;;;;;5.10;3.33;;;;;;;-0.57;71.12;98483.75;4827409;29;20058;-85
2021/12/04 06:16:15;;;;;;;7.80;3.95;;;;;;;-0.57;70.88;98491.47;4828838;29;20082;-85
2021/12/04 06:18:47;;;;;;;5.85;3.85;;;;;;;-0.57;70.71;98477.78;4828539;29;20059;-86
2021/12/04 06:24:03;;;;;;;5.65;3.58;;;;;;;-0.53;70.59;98506.09;4833374;29;20062;-87
2021/12/04 06:26:32;;;;;;;4.82;3.55;;;;;;;-0.45;70.27;98502.03;4828581;29;20469;-85
2021/12/04 06:29:00;;;;;;;5.93;3.67;;;;;;;-0.47;70.63;98495.13;4836728;29;20076;-86
2021/12/04 06:31:28;;;;;;;6.25;3.67;;;;;;;-0.59;70.77;98484.56;4824356;29;20070;-86
2021/12/04 06:33:55;;;;;;;5.28;3.40;;;;;;;-0.51;70.31;98512.13;4822889;29;20054;-86
2021/12/04 06:36:24;;;;;;;6.95;3.85;;;;;;;-0.45;71.00;98503.75;4826380;29;20062;-85
2021/12/04 06:38:53;;;;;;;5.43;3.58;;;;;;;-0.62;70.31;98465.69;4826922;29;20153;-85
2021/12/04 06:41:20;;;;;;;6.63;3.90;;;;;;;-0.52;70.96;98512.94;4809546;29;20092;-85
2021/12/04 06:43:50;;;;;;;5.68;3.58;;;;;;;-0.45;70.81;98509.75;4809110;29;20055;-86
2021/12/04 06:46:19;;;;;;;8.93;4.37;;;;;;;-0.34;70.63;98520.28;4807669;29;20055;-86
2021/12/04 06:51:49;;;;;;;6.40;4.05;;;;;;;-0.35;70.67;98535.63;4808905;29;20600;-86
2021/12/04 06:54:20;;;;;;;;;;;;;;;-0.48;70.59;98537.00;4813799;29;20054;-86
2021/12/04 06:56:48;;;;;;;7.03;4.18;;;;;;;-0.45;70.81;98544.78;4792475;29;19929;-87
2021/12/04 06:59:26;;;;;;;8.15;4.20;;;;;;;-0.62;70.88;98506.72;4809281;29;20074;-85
2021/12/04 07:01:53;;;;;;;6.68;4.10;;;;;;;-0.59;71.22;98510.22;4809241;29;20063;-86
2021/12/04 07:04:23;;;;;;;8.85;4.28;;;;;;;-0.54;71.03;98524.88;4808812;29;20150;-86
2021/12/04 07:06:50;;;;;;;10.90;4.83;;;;;;;-0.59;71.02;98513.63;4810438;29;20424;-86
2021/12/04 07:09:19;;;;;;;11.02;4.88;;;;;;;-0.47;71.55;98531.06;4809453;29;20116;-86
2021/12/04 07:11:47;;;;;;;7.45;4.15;;;;;;;-0.40;71.15;98558.59;4797472;29;20074;-87
2021/12/04 07:14:14;;;;;;;8.00;3.90;;;;;;;-0.40;71.32;98534.66;4790624;30;20151;-89
2021/12/04 07:16:43;;;;;;;9.73;4.50;;;;;;;-0.33;71.33;98544.22;4828942;29;20066;-90
2021/12/04 07:19:11;;;;;;;8.27;4.50;;;;;;;-0.38;70.89;98528.72;4802097;29;20034;-89
2021/12/04 07:21:39;;;;;;;6.28;4.25;;;;;;;-0.26;71.06;98552.13;4848969;29;20058;-87
2021/12/04 07:24:07;;;;;;;9.88;4.85;;;;;;;-0.36;71.14;98541.59;4832706;29;20060;-88
2021/12/04 07:26:34;;;;;;;13.70;5.68;;;;;;;-0.35;71.07;98556.16;4830471;29;20253;-87
2021/12/04 07:29:03;;;;;;;11.90;5.13;;;;;;;-0.44;71.44;98555.06;4797739;29;20080;-88
2021/12/04 07:31:32;;;;;;;12.07;4.85;;;;;;;-0.33;71.27;98559.63;4812931;29;20074;-87
2021/12/04 07:34:00;;;;;;;11.70;5.40;;;;;;;-0.25;71.55;98559.00;4815884;29;20095;-85
2021/12/04 07:36:28;;;;;;;5.78;4.13;;;;;;;-0.26;71.48;98549.56;4816551;29;20061;-85
2021/12/04 07:38:56;;;;;;;6.50;3.75;;;;;;;-0.24;71.28;98575.25;4810872;29;20065;-84
2021/12/04 07:41:23;;;;;;;10.40;4.50;;;;;;;-0.38;71.14;98545.81;4814366;29;20054;-84
2021/12/04 07:43:51;;;;;;;7.53;4.15;;;;;;;-0.31;71.07;98547.69;4827760;29;20046;-86
2021/12/04 07:46:18;;;;;;;7.70;3.92;;;;;;;-0.26;71.17;98585.50;4812657;29;20054;-82
2021/12/04 07:48:47;;;;;;;6.50;4.18;;;;;;;-0.27;71.38;98573.47;4813383;29;20055;-83
2021/12/04 07:51:17;;;;;;;6.50;4.00;;;;;;;-0.40;71.43;98548.34;4828484;29;20047;-83
2021/12/04 07:53:48;;;;;;;12.52;5.15;;;;;;;-0.37;71.14;98553.53;4823406;29;20568;-86
2021/12/04 07:56:15;;;;;;;9.88;3.97;;;;;;;-0.17;71.21;98604.50;4815009;29;20069;-83
2021/12/04 07:58:43;;;;;;;6.88;4.45;;;;;;;-0.21;71.30;98608.72;4812797;29;20432;-85
2021/12/04 08:01:10;;;;;;;7.43;4.45;;;;;;;-0.17;70.87;98600.28;4814407;29;20425;-87
2021/12/04 08:03:38;;;;;;;5.93;3.42;;;;;;;0.03;70.15;98616.16;4809453;29;20054;-90
2021/12/04 08:06:06;;;;;;;6.00;3.75;;;;;;;-0.19;70.07;98577.94;4789673;29;20109;-82
2021/12/04 08:08:34;;;;;;;5.75;3.67;;;;;;;0.10;69.85;98607.78;4789879;29;20063;-88
2021/12/04 08:11:03;;;;;;;6.53;3.40;;;;;;;0.24;68.75;98603.00;4791501;29;20502;-89
2021/12/04 08:13:31;;;;;;;7.82;3.97;;;;;;;0.19;68.98;98626.00;4790645;29;20055;-88
2021/12/04 08:15:59;;;;;;;6.47;3.17;;;;;;;0.03;69.19;98602.47;4802994;29;20076;-82
2021/12/04 08:18:27;;;;;;;8.05;3.65;;;;;;;0.15;68.88;98636.13;4829473;29;20141;-83
2021/12/04 08:20:58;;;;;;;5.32;3.30;;;;;;;0.18;68.51;98642.22;4827891;29;20065;-83
2021/12/04 08:23:25;;;;;;;6.13;3.38;;;;;;;0.14;68.38;98637.84;4823192;29;20050;-83
2021/12/04 08:25:53;;;;;;;5.32;3.08;;;;;;;0.32;67.43;98654.53;4842965;29;20069;-82
2021/12/04 08:28:20;;;;;;;5.18;3.50;;;;;;;0.10;66.82;98615.47;4842191;29;20061;-83
2021/12/04 08:30:52;;;;;;;7.00;4.32;;;;;;;0.35;66.96;98673.47;4833880;29;20058;-86
2021/12/04 08:33:20;;;;;;;7.88;4.50;;;;;;;0.33;66.87;98641.75;4833819;29;20065;-85
2021/12/04 08:35:47;;;;;;;4.72;3.42;;;;;;;0.50;65.42;98643.88;4828056;29;20531;-86
2021/12/04 08:38:16;;;;;;;7.53;4.00;;;;;;;0.56;65.29;98662.88;4828841;29;20426;-84
2021/12/04 08:40:44;;;;;;;5.28;3.70;;;;;;;0.57;65.58;98680.00;4826768;29;20085;-84
2021/12/04 08:43:12;;;;;;;4.53;2.78;;;;;;;0.37;64.02;98663.25;4817592;29;20059;-87
2021/12/04 08:46:00;;;;;;;4.30;2.40;;;;;;;0.13;62.97;98666.94;4823239;29;20058;-84
2021/12/04 08:48:29;;;;;;;3.03;1.95;;;;;;;-0.04;62.19;98660.50;4823228;29;20080;-85
2021/12/04 08:50:59;;;;;;;2.22;1.90;;;;;;;-0.11;61.67;98704.78;4827612;29;20067;-86
2021/12/04 08:53:28;;;;;;;2.25;1.50;;;;;;;-0.31;60.66;98689.72;4823368;29;20062;-88
2021/12/04 08:56:04;;;;;;;;;;;;;;;-0.52;61.72;98707.06;4808359;29;20058;-87
2021/12/04 08:58:32;;;;;;;2.00;1.40;;;;;;;-0.53;60.60;98741.25;4807946;29;19935;-87
2021/12/04 09:01:04;;;;;;;1.63;1.40;;;;;;;-0.58;59.76;98715.47;4825096;29;20054;-86
2021/12/04 09:03:37;;;;;;;2.22;1.63;;;;;;;-0.63;59.28;98714.44;4823040;29;20084;-87
2021/12/04 09:06:05;;;;;;;2.22;1.70;;;;;;;-0.66;59.51;98711.81;4824854;29;20070;-87
2021/12/04 09:08:36;;;;;;;4.03;1.75;;;;;;;-0.60;59.68;98739.31;4824729;29;20058;-84
2021/12/04 09:11:12;;;;;;;2.70;1.75;;;;;;;-0.59;59.31;98735.94;4823859;29;20070;-84
2021/12/04 09:13:40;;;;;;;6.20;2.38;;;;;;;-0.64;59.17;98728.97;4825589;29;20050;-84
2021/12/04 09:16:12;;;;;;;2.88;2.15;;;;;;;-0.76;59.93;98738.84;4826333;29;20111;-88
2021/12/04 09:18:45;;;;;;;6.13;3.15;;;;;;;-0.83;59.75;98740.38;4825567;29;20145;-85
2021/12/04 09:21:14;;;;;;;10.48;5.13;;;;;;;-0.92;59.92;98716.16;4826111;29;20081;-86
2021/12/04 09:23:50;;;;;;;25.17;10.07;;;;;;;-1.06;60.48;98733.66;4819574;29;20051;-84
2021/12/04 09:29:29;;;;;;;11.93;5.45;;;;;;;-1.31;60.53;98732.03;4818634;29;20069;-85
2021/12/04 10:02:26;;;;;;;3.95;1.92;;;;;;;-0.42;57.50;98770.66;4824659;29;20069;-85
2021/12/04 10:21:59;;;;;;;7.65;3.40;;;;;;;-0.27;57.53;98786.50;4798027;29;20154;-86
2021/12/04 10:35:10;;;;;;;3.13;2.40;;;;;;;0.29;55.36;98788.91;4798186;29;20102;-85
2021/12/04 10:37:51;;;;;;;6.32;3.08;;;;;;;0.21;55.86;98805.81;4792598;29;20055;-88
2021/12/04 10:40:23;;;;;;;2.67;2.10;;;;;;;0.09;56.19;98798.66;4791442;29;20063;-85
2021/12/04 10:43:00;;;;;;;5.97;2.80;;;;;;;-0.12;56.87;98786.06;4791957;30;20413;-85
2021/12/04 10:45:35;;;;;;;4.35;2.90;;;;;;;0.06;56.76;98813.09;4790960;29;20055;-83
2021/12/04 10:48:07;;;;;;;6.03;3.38;;;;;;;0.07;56.60;98813.16;4791966;29;20092;-84
2021/12/04 10:50:42;;;;;;;4.97;3.25;;;;;;;-0.08;56.18;98792.19;4791464;29;20117;-84
2021/12/04 10:53:18;;;;;;;6.68;3.03;;;;;;;-0.08;56.57;98821.28;4762331;30;20062;-82
2021/12/04 10:55:56;;;;;;;7.55;3.83;;;;;;;-0.02;56.68;98824.03;4795410;29;20063;-84
2021/12/04 11:04:16;;;;;;;5.97;2.88;;;;;;;-0.23;56.99;98831.97;4790593;29;20055;-84
2021/12/04 11:24:10;;;;;;;9.55;4.90;;;;;;;-0.56;57.56;98870.31;4790332;29;20509;-83
2021/12/04 11:42:48;;;;;;;20.52;9.75;;;;;;;-0.93;60.31;98863.97;4828542;29;20050;-83
2021/12/04 11:45:22;;;;;;;15.73;7.35;;;;;;;-1.04;59.96;98848.22;4825639;29;20092;-84
2021/12/04 11:47:53;;;;;;;14.70;6.93;;;;;;;-0.95;60.37;98863.03;4824392;29;20062;-80
2021/12/04 11:50:31;;;;;;;15.57;8.25;;;;;;;-0.92;60.59;98872.56;4824918;29;20449;-84
2021/12/04 11:53:11;;;;;;;16.27;7.22;;;;;;;-0.84;59.98;98874.53;4809372;29;20058;-87
2021/12/04 11:55:43;;;;;;;14.57;7.13;;;;;;;-0.82;60.06;98872.00;4824921;29;20152;-88
2021/12/04 11:58:28;;;;;;;14.65;7.25;;;;;;;-0.77;60.48;98880.75;4824812;29;20094;-83
2021/12/04 12:01:01;;;;;;;12.25;6.22;;;;;;;-0.76;60.63;98867.09;4825565;29;20066;-83
2021/12/04 12:03:32;;;;;;;9.90;3.90;;;;;;;-0.78;60.25;98885.81;4825018;29;20436;-84
2021/12/04 12:06:03;;;;;;;5.10;3.78;;;;;;;-0.85;60.64;98874.47;4825573;29;20109;-83
2021/12/04 12:08:38;;;;;;;5.00;3.40;;;;;;;-0.89;60.73;98888.03;4825961;29;20054;-83
2021/12/04 12:11:25;;;;;;;4.25;2.97;;;;;;;-0.95;60.83;98891.25;4826965;29;20058;-83
2021/12/04 12:14:10;;;;;;;16.17;7.22;;;;;;;-1.11;61.22;98878.75;4825201;29;20151;-83
2021/12/04 12:16:54;;;;;;;12.57;4.60;;;;;;;-0.99;60.91;98897.13;4790880;29;20074;-84
2021/12/04 12:19:40;;;;;;;9.75;4.75;;;;;;;-0.99;60.54;98906.47;4784521;30;20062;-83
2021/12/04 12:22:29;;;;;;;10.50;5.88;;;;;;;-1.04;61.08;98902.06;4804233;29;20402;-81
2021/12/04 12:25:21;;;;;;;8.90;4.35;;;;;;;-1.05;60.94;98912.28;4814735;29;20080;-79
2021/12/04 12:33:59;;;;;;;17.17;7.70;;;;;;;-1.24;61.11;98928.72;4818977;29;20117;-84
2021/12/04 12:36:33;;;;;;;8.05;3.90;;;;;;;-1.26;61.35;98930.34;4788764;29;20055;-84
2021/12/04 12:39:13;;;;;;;13.52;5.68;;;;;;;-1.30;61.36;98921.66;4788536;29;20074;-84
2021/12/04 12:41:42;;;;;;;13.13;6.18;;;;;;;-1.31;61.60;98924.19;4786945;29;20069;-85
2021/12/04 12:44:29;;;;;;;12.50;5.63;;;;;;;-1.29;61.54;98927.66;4786866;30;20062;-82
2021/12/04 12:47:00;;;;;;;10.48;4.80;;;;;;;-1.30;61.40;98933.59;4785766;29;20061;-83
2021/12/04 12:49:39;;;;;;;8.30;4.72;;;;;;;-1.28;61.34;98939.66;4786682;30;20150;-85
2021/12/04 12:52:14;;;;;;;10.07;4.78;;;;;;;-1.49;61.06;98891.94;4787593;29;20607;-85
2021/12/04 12:54:54;;;;;;;8.60;4.55;;;;;;;-1.30;61.63;98931.91;4786398;30;20068;-85
2021/12/04 12:57:29;;;;;;;8.83;4.60;;;;;;;-1.24;61.62;98942.38;4791709;29;20065;-85
2021/12/04 13:11:42;;;;;;;5.68;3.45;;;;;;;-1.23;61.90;98966.31;4788284;29;20493;-84
2021/12/04 13:14:15;;;;;;;7.53;4.20;;;;;;;-1.07;61.92;98971.19;4806101;29;20063;-90
2021/12/04 13:16:47;;;;;;;4.10;3.30;;;;;;;-1.19;61.64;98957.06;4792152;30;20051;-85
2021/12/04 13:19:20;;;;;;;6.22;3.63;;;;;;;-1.06;61.50;98995.97;4787973;29;20054;-87
2021/12/04 13:21:49;;;;;;;;;;;;;;;-1.24;62.60;98985.09;4819852;29;20071;-88
2021/12/04 13:24:17;;;;;;;5.55;3.63;;;;;;;-1.15;62.23;99007.59;4827221;29;19929;-84
2021/12/04 13:26:48;;;;;;;4.88;3.35;;;;;;;-1.35;62.35;98971.03;4824860;29;20085;-86
2021/12/04 13:29:18;;;;;;;8.23;4.28;;;;;;;-1.18;62.04;99003.25;4811787;29;20094;-88
2021/12/04 13:31:46;;;;;;;14.20;6.35;;;;;;;-1.21;62.27;98999.69;4802557;29;20055;-85
2021/12/04 13:34:21;;;;;;;7.60;4.55;;;;;;;-1.38;62.35;98968.31;4819316;29;20059;-87
2021/12/04 13:36:53;;;;;;;7.18;4.22;;;;;;;-1.51;61.46;98949.94;4810268;29;20914;-87
2021/12/04 13:39:21;;;;;;;6.13;3.20;;;;;;;-1.16;61.09;99024.69;4814050;29;20058;-85
2021/12/04 13:41:53;;;;;;;5.55;3.08;;;;;;;-1.24;60.72;99033.78;4816100;29;20428;-88
2021/12/04 13:44:48;;;;;;;7.93;4.38;;;;;;;-1.33;61.04;99021.50;4810869;29;20865;-88
2021/12/04 13:47:22;;;;;;;7.25;3.70;;;;;;;-1.41;61.46;99022.03;4785792;29;20062;-86
2021/12/04 13:50:44;;;;;;;10.73;4.95;;;;;;;-1.39;60.63;99035.78;4803950;29;20405;-90
2021/12/04 13:53:24;;;;;;;12.65;6.65;;;;;;;-1.63;60.59;99008.41;4797409;29;20508;-87
2021/12/04 13:56:18;;;;;;;5.20;3.40;;;;;;;-1.36;60.62;99046.13;4807666;29;20059;-84
2021/12/04 13:58:57;;;;;;;6.95;3.88;;;;;;;-1.34;60.65;99044.50;4786783;29;20449;-86
2021/12/04 14:01:26;;;;;;;6.07;3.92;;;;;;;-1.35;60.59;99050.44;4792527;29;20094;-85
2021/12/04 14:03:59;;;;;;;19.08;8.90;;;;;;;-1.56;61.07;99012.06;4790257;30;20116;-85
2021/12/04 14:06:27;;;;;;;5.20;3.40;;;;;;;-1.39;59.98;99046.88;4778649;29;20572;-85
2021/12/04 14:09:04;;;;;;;13.02;6.10;;;;;;;-1.58;60.58;99022.25;4808666;29;20058;-86
2021/12/04 14:11:37;;;;;;;5.60;2.50;;;;;;;-1.43;59.88;99062.09;4807096;29;20513;-89
2021/12/04 14:14:27;;;;;;;13.20;5.60;;;;;;;-1.61;60.09;99028.94;4794278;29;20128;-86
2021/12/04 14:17:02;;;;;;;9.85;5.43;;;;;;;-1.53;60.36;99061.72;4790170;29;20511;-88
2021/12/04 14:19:30;;;;;;;4.43;2.67;;;;;;;-1.53;59.94;99048.91;4791979;29;20059;-86
2021/12/04 14:22:23;;;;;;;7.78;4.10;;;;;;;-1.52;59.58;99050.66;4775042;30;20055;-88
2021/12/04 14:25:19;;;;;;;6.05;3.42;;;;;;;-1.45;60.10;99065.44;4791822;29;20160;-90
2021/12/04 14:27:53;;;;;;;6.35;3.45;;;;;;;-1.61;59.50;99037.53;4793589;29;20047;-88
2021/12/04 14:30:25;;;;;;;5.53;3.45;;;;;;;-1.63;59.93;99040.81;4780083;30;20055;-86
2021/12/04 14:32:56;;;;;;;6.50;3.72;;;;;;;-1.58;59.57;99053.00;4798300;29;20062;-87
2021/12/04 14:35:34;;;;;;;4.35;2.75;;;;;;;-1.56;59.45;99079.53;4796758;29;20067;-85
2021/12/04 14:38:10;;;;;;;3.58;2.60;;;;;;;-1.61;59.05;99069.91;4793493;29;20063;-90
2021/12/04 14:40:43;;;;;;;4.47;2.97;;;;;;;-1.68;58.87;99077.38;4774583;30;20078;-85
2021/12/04 14:43:15;;;;;;;7.07;3.20;;;;;;;-1.71;59.24;99076.38;4791600;30;20055;-87
2021/12/04 14:45:50;;;;;;;6.97;3.83;;;;;;;-1.81;58.84;99062.31;4790707;29;20051;-87
2021/12/04 14:48:23;;;;;;;6.15;3.30;;;;;;;-1.89;58.56;99056.06;4790073;30;20150;-86
2021/12/04 14:51:02;;;;;;;6.70;3.63;;;;;;;-2.22;58.72;99041.06;4791527;29;20158;-88
2021/12/04 14:53:42;;;;;;;17.50;7.88;;;;;;;-1.92;58.35;99089.19;4790672;30;20055;-87
2021/12/04 14:56:19;;;;;;;5.10;2.83;;;;;;;-2.03;58.55;99075.09;4794809;29;20059;-89
2021/12/04 14:58:51;;;;;;;5.90;3.50;;;;;;;-2.03;58.46;99064.84;4792123;30;20075;-87
2021/12/04 15:01:27;;;;;;;10.30;5.03;;;;;;;-2.06;58.13;99063.06;4790376;30;20063;-88
2021/12/04 15:04:01;;;;;;;6.50;3.60;;;;;;;-2.21;57.81;99034.28;4790444;29;20059;-86